createdAt,value
2023-04-18T00:00:55.507Z,27.16
2023-04-18T00:01:55.594Z,27.10
2023-04-18T00:02:55.755Z,27.13
2023-04-18T00:03:55.698Z,27.16
2023-04-18T00:04:55.827Z,27.16
2023-04-18T00:05:55.637Z,27.11
2023-04-18T00:06:55.638Z,27.13
2023-04-18T00:07:55.675Z,27.10
2023-04-18T00:08:55.742Z,27.14
2023-04-18T00:09:55.774Z,27.11
2023-04-18T00:10:55.761Z,27.09
2023-04-18T00:11:55.780Z,27.07
2023-04-18T00:12:55.801Z,27.15
2023-04-18T00:13:55.821Z,27.11
2023-04-18T00:14:55.871Z,27.10
2023-04-18T00:15:55.887Z,27.10
2023-04-18T00:16:55.951Z,27.13
2023-04-18T00:17:55.970Z,27.07
2023-04-18T00:18:55.950Z,27.13
2023-04-18T00:19:56.016Z,27.16
2023-04-18T00:20:55.999Z,27.10
2023-04-18T00:21:56.074Z,27.07
2023-04-18T00:22:56.057Z,27.16
2023-04-18T00:23:56.070Z,27.14
2023-04-18T00:24:56.143Z,27.17
2023-04-18T00:25:56.108Z,27.15
2023-04-18T00:26:56.158Z,27.16
2023-04-18T00:27:56.170Z,27.14
2023-04-18T00:28:56.228Z,27.09
2023-04-18T00:29:56.244Z,27.17
2023-04-18T00:30:56.339Z,27.14
2023-04-18T00:31:56.287Z,27.10
2023-04-18T00:32:56.339Z,27.11
2023-04-18T00:33:56.327Z,27.09
2023-04-18T00:34:56.397Z,27.09
2023-04-18T00:35:56.390Z,27.09
2023-04-18T00:36:56.384Z,27.06
2023-04-18T00:37:56.439Z,27.09
2023-04-18T00:38:56.450Z,27.09
2023-04-18T00:39:56.481Z,27.09
2023-04-18T00:40:56.512Z,27.08
2023-04-18T00:41:56.515Z,27.10
2023-04-18T00:42:56.540Z,27.05
2023-04-18T00:43:56.573Z,27.09
2023-04-18T00:44:56.613Z,27.09
2023-04-18T00:45:56.667Z,27.10
2023-04-18T00:46:56.637Z,27.07
2023-04-18T00:47:56.693Z,27.10
2023-04-18T00:48:56.685Z,27.09
2023-04-18T00:49:56.739Z,27.06
2023-04-18T00:50:56.739Z,27.09
2023-04-18T00:51:56.891Z,27.03
2023-04-18T00:52:56.788Z,27.09
2023-04-18T00:53:56.785Z,27.09
2023-04-18T00:54:56.867Z,27.04
2023-04-18T00:55:56.864Z,27.04
2023-04-18T00:56:56.966Z,27.01
2023-04-18T00:57:56.886Z,27.05
2023-04-18T00:58:56.941Z,27.06
2023-04-18T00:59:56.952Z,27.07
2023-04-18T01:00:56.963Z,27.04
2023-04-18T01:01:57.089Z,27.06
2023-04-18T01:02:57.123Z,27.11
2023-04-18T01:03:57.121Z,27.10
2023-04-18T01:04:57.057Z,27.07
2023-04-18T01:05:57.093Z,27.07
2023-04-18T01:06:57.115Z,27.06
2023-04-18T01:07:57.111Z,27.11
2023-04-18T01:08:57.198Z,27.05
2023-04-18T01:09:57.177Z,27.07
2023-04-18T01:10:57.203Z,27.05
2023-04-18T01:11:57.282Z,27.07
2023-04-18T01:12:57.286Z,27.06
2023-04-18T01:13:57.296Z,27.09
2023-04-18T01:14:57.381Z,27.07
2023-04-18T01:15:57.357Z,27.07
2023-04-18T01:16:57.383Z,27.07
2023-04-18T01:17:57.453Z,27.07
2023-04-18T01:18:57.401Z,27.10
2023-04-18T01:19:57.433Z,27.03
2023-04-18T01:20:57.430Z,27.09
2023-04-18T01:21:57.452Z,27.05
2023-04-18T01:22:57.493Z,27.06
2023-04-18T01:23:57.518Z,27.02
2023-04-18T01:24:57.552Z,27.06
2023-04-18T01:25:57.577Z,27.07
2023-04-18T01:26:57.580Z,27.05
2023-04-18T01:27:57.645Z,27.06
2023-04-18T01:28:57.656Z,27.05
2023-04-18T01:29:57.664Z,27.01
2023-04-18T01:30:57.752Z,27.01
2023-04-18T01:31:57.754Z,27.01
2023-04-18T01:32:57.786Z,27.04
2023-04-18T01:33:57.778Z,27.03
2023-04-18T01:34:57.808Z,26.99
2023-04-18T01:35:57.808Z,27.03
2023-04-18T01:36:57.841Z,27.07
2023-04-18T01:37:57.878Z,27.01
2023-04-18T01:38:57.895Z,27.01
2023-04-18T01:39:57.975Z,27.01
2023-04-18T01:40:57.936Z,26.98
2023-04-18T01:41:57.956Z,27.02
2023-04-18T01:42:57.988Z,27.02
2023-04-18T01:43:57.989Z,27.00
2023-04-18T01:44:58.044Z,27.02
2023-04-18T01:45:58.073Z,27.02
2023-04-18T01:46:58.129Z,27.01
2023-04-18T01:47:58.205Z,27.04
2023-04-18T01:48:58.130Z,27.03
2023-04-18T01:49:58.152Z,27.00
2023-04-18T01:50:58.163Z,27.06
2023-04-18T01:51:58.147Z,27.01
2023-04-18T01:52:58.224Z,27.10
2023-04-18T01:53:58.220Z,27.02
2023-04-18T01:54:58.229Z,27.02
2023-04-18T01:55:58.249Z,27.04
2023-04-18T01:56:58.299Z,27.01
2023-04-18T01:57:58.285Z,27.03
2023-04-18T01:58:58.334Z,26.98
2023-04-18T01:59:58.350Z,27.00
2023-04-18T02:00:58.368Z,27.04
2023-04-18T02:01:58.477Z,26.98
2023-04-18T02:02:58.553Z,26.99
2023-04-18T02:03:58.520Z,27.03
2023-04-18T02:04:58.452Z,26.98
2023-04-18T02:05:58.470Z,27.02
2023-04-18T02:06:58.515Z,26.98
2023-04-18T02:07:58.572Z,26.96
2023-04-18T02:08:58.547Z,26.99
2023-04-18T02:09:58.615Z,26.95
2023-04-18T02:10:58.597Z,26.96
2023-04-18T02:11:58.595Z,26.98
2023-04-18T02:12:58.646Z,26.96
2023-04-18T02:13:58.647Z,26.98
2023-04-18T02:14:58.672Z,26.94
2023-04-18T02:15:58.757Z,26.98
2023-04-18T02:16:58.766Z,27.02
2023-04-18T02:17:58.797Z,26.93
2023-04-18T02:18:58.790Z,26.98
2023-04-18T02:19:58.790Z,27.07
2023-04-18T02:20:58.800Z,27.00
2023-04-18T02:21:58.885Z,27.01
2023-04-18T02:22:58.848Z,26.99
2023-04-18T02:23:58.892Z,26.95
2023-04-18T02:24:58.893Z,26.95
2023-04-18T02:25:58.931Z,27.07
2023-04-18T02:26:58.949Z,27.03
2023-04-18T02:27:58.988Z,26.98
2023-04-18T02:28:59.010Z,26.96
2023-04-18T02:29:59.014Z,26.96
2023-04-18T02:30:59.048Z,27.00
2023-04-18T02:31:59.104Z,26.99
2023-04-18T02:32:59.203Z,26.96
2023-04-18T02:33:59.129Z,26.96
2023-04-18T02:34:59.163Z,26.95
2023-04-18T02:35:59.129Z,26.94
2023-04-18T02:36:59.178Z,26.96
2023-04-18T02:37:59.200Z,26.91
2023-04-18T02:38:59.231Z,26.99
2023-04-18T02:39:59.293Z,26.92
2023-04-18T02:40:59.272Z,26.94
2023-04-18T02:41:59.319Z,26.96
2023-04-18T02:42:59.326Z,26.92
2023-04-18T02:43:59.363Z,26.93
2023-04-18T02:44:59.344Z,26.90
2023-04-18T02:45:59.430Z,26.99
2023-04-18T02:46:59.416Z,26.99
2023-04-18T02:47:59.510Z,26.91
2023-04-18T02:48:59.491Z,26.91
2023-04-18T02:49:59.518Z,26.92
2023-04-18T02:50:59.528Z,26.96
2023-04-18T02:51:59.531Z,26.90
2023-04-18T02:52:59.580Z,26.90
2023-04-18T02:53:59.621Z,26.91
2023-04-18T02:54:59.633Z,26.91
2023-04-18T02:55:59.657Z,26.93
2023-04-18T02:56:59.628Z,26.91
2023-04-18T02:57:59.679Z,26.91
2023-04-18T02:58:59.695Z,26.92
2023-04-18T02:59:59.728Z,26.90
2023-04-18T03:00:59.784Z,26.88
2023-04-18T03:01:59.787Z,26.91
2023-04-18T03:02:59.990Z,26.93
2023-04-18T03:03:59.832Z,26.90
2023-04-18T03:04:59.913Z,26.91
2023-04-18T03:06:00.757Z,26.88
2023-04-18T03:06:59.929Z,26.92
2023-04-18T03:07:59.904Z,26.98
2023-04-18T03:08:59.932Z,26.95
2023-04-18T03:10:00.031Z,26.95
2023-04-18T03:10:59.962Z,26.91
2023-04-18T03:12:00.035Z,26.92
2023-04-18T03:13:00.044Z,26.96
2023-04-18T03:14:00.064Z,26.88
2023-04-18T03:15:00.112Z,26.90
2023-04-18T03:16:00.138Z,26.91
2023-04-18T03:17:00.141Z,26.89
2023-04-18T03:18:00.222Z,26.88
2023-04-18T03:19:00.156Z,26.93
2023-04-18T03:20:00.210Z,26.91
2023-04-18T03:21:00.236Z,26.92
2023-04-18T03:22:00.214Z,26.93
2023-04-18T03:23:00.255Z,26.91
2023-04-18T03:24:00.261Z,26.90
2023-04-18T03:25:00.373Z,26.87
2023-04-18T03:26:00.356Z,26.85
2023-04-18T03:27:00.345Z,26.88
2023-04-18T03:28:00.388Z,26.84
2023-04-18T03:29:00.403Z,26.91
2023-04-18T03:30:00.438Z,26.87
2023-04-18T03:31:00.488Z,26.88
2023-04-18T03:32:00.477Z,26.86
2023-04-18T03:33:00.571Z,26.87
2023-04-18T03:34:00.489Z,26.90
2023-04-18T03:35:00.524Z,26.84
2023-04-18T03:36:00.589Z,26.84
2023-04-18T03:37:00.586Z,26.87
2023-04-18T03:38:00.630Z,26.88
2023-04-18T03:39:00.628Z,26.98
2023-04-18T03:40:00.644Z,26.92
2023-04-18T03:41:00.694Z,26.92
2023-04-18T03:42:00.667Z,26.89
2023-04-18T03:43:00.758Z,26.84
2023-04-18T03:44:00.729Z,26.87
2023-04-18T03:45:00.775Z,26.91
2023-04-18T03:46:00.844Z,26.91
2023-04-18T03:47:00.817Z,26.88
2023-04-18T03:48:01.888Z,26.90
2023-04-18T03:49:00.872Z,26.84
2023-04-18T03:50:00.936Z,26.84
2023-04-18T03:51:00.932Z,26.87
2023-04-18T03:52:00.955Z,26.89
2023-04-18T03:53:00.998Z,26.88
2023-04-18T03:54:00.987Z,26.89
2023-04-18T03:55:01.010Z,26.84
2023-04-18T03:56:00.994Z,26.85
2023-04-18T03:57:01.067Z,26.87
2023-04-18T03:58:01.075Z,26.77
2023-04-18T03:59:01.082Z,26.85
2023-04-18T04:00:01.113Z,26.84
2023-04-18T04:01:01.137Z,26.84
2023-04-18T04:02:01.230Z,26.88
2023-04-18T04:03:01.394Z,26.85
2023-04-18T04:04:01.264Z,26.85
2023-04-18T04:05:01.254Z,26.80
2023-04-18T04:06:01.237Z,26.85
2023-04-18T04:07:01.306Z,26.89
2023-04-18T04:08:01.323Z,26.87
2023-04-18T04:09:01.355Z,26.84
2023-04-18T04:10:01.413Z,26.84
2023-04-18T04:11:01.382Z,26.83
2023-04-18T04:12:01.408Z,26.87
2023-04-18T04:13:01.458Z,26.84
2023-04-18T04:14:01.420Z,26.87
2023-04-18T04:15:01.465Z,26.83
2023-04-18T04:16:01.558Z,26.83
2023-04-18T04:17:01.558Z,26.85
2023-04-18T04:18:01.594Z,26.84
2023-04-18T04:19:01.538Z,26.89
2023-04-18T04:20:01.712Z,26.83
2023-04-18T04:21:01.611Z,26.89
2023-04-18T04:22:01.627Z,26.89
2023-04-18T04:23:01.648Z,26.83
2023-04-18T04:24:01.666Z,26.87
2023-04-18T04:25:01.666Z,26.83
2023-04-18T04:26:01.764Z,26.84
2023-04-18T04:27:01.695Z,26.85
2023-04-18T04:28:01.724Z,26.87
2023-04-18T04:29:01.748Z,26.85
2023-04-18T04:30:01.764Z,26.88
2023-04-18T04:31:01.814Z,26.83
2023-04-18T04:32:01.910Z,26.80
2023-04-18T04:33:02.015Z,26.81
2023-04-18T04:34:02.408Z,26.87
2023-04-18T04:35:01.905Z,26.83
2023-04-18T04:36:01.918Z,26.83
2023-04-18T04:37:01.948Z,26.82
2023-04-18T04:38:01.976Z,26.84
2023-04-18T04:39:01.993Z,26.84
2023-04-18T04:40:02.018Z,26.81
2023-04-18T04:41:02.089Z,26.84
2023-04-18T04:42:02.030Z,26.79
2023-04-18T04:43:02.046Z,26.80
2023-04-18T04:44:02.090Z,26.84
2023-04-18T04:45:02.179Z,26.80
2023-04-18T04:46:02.212Z,26.84
2023-04-18T04:47:02.190Z,26.79
2023-04-18T04:48:02.342Z,26.76
2023-04-18T04:49:02.261Z,26.77
2023-04-18T04:50:02.330Z,26.76
2023-04-18T04:51:02.318Z,26.76
2023-04-18T04:52:02.338Z,26.81
2023-04-18T04:53:02.339Z,26.76
2023-04-18T04:54:02.358Z,26.76
2023-04-18T04:55:02.401Z,26.76
2023-04-18T04:56:02.424Z,26.76
2023-04-18T04:57:02.435Z,26.74
2023-04-18T04:58:02.454Z,26.73
2023-04-18T04:59:02.506Z,26.76
2023-04-18T05:00:02.538Z,26.77
2023-04-18T05:01:02.656Z,26.77
2023-04-18T05:02:02.664Z,26.79
2023-04-18T05:03:02.831Z,26.74
2023-04-18T05:04:02.818Z,26.73
2023-04-18T05:05:02.824Z,26.77
2023-04-18T05:06:02.716Z,26.80
2023-04-18T05:07:02.749Z,26.72
2023-04-18T05:08:02.782Z,26.73
2023-04-18T05:09:02.812Z,26.72
2023-04-18T05:10:02.899Z,26.77
2023-04-18T05:11:02.862Z,26.72
2023-04-18T05:12:02.907Z,26.73
2023-04-18T05:13:02.926Z,26.75
2023-04-18T05:14:02.949Z,26.76
2023-04-18T05:15:02.988Z,26.71
2023-04-18T05:16:02.999Z,26.75
2023-04-18T05:17:03.041Z,26.71
2023-04-18T05:18:03.094Z,26.73
2023-04-18T05:19:03.067Z,26.69
2023-04-18T05:20:03.095Z,26.68
2023-04-18T05:21:03.106Z,26.72
2023-04-18T05:22:03.176Z,26.71
2023-04-18T05:23:03.163Z,26.71
2023-04-18T05:24:03.239Z,26.71
2023-04-18T05:25:03.244Z,26.71
2023-04-18T05:26:03.273Z,26.71
2023-04-18T05:27:03.316Z,26.75
2023-04-18T05:28:03.284Z,26.71
2023-04-18T05:29:03.359Z,26.71
2023-04-18T05:30:03.419Z,26.67
2023-04-18T05:31:03.510Z,26.72
2023-04-18T05:32:03.431Z,26.75
2023-04-18T05:33:03.556Z,26.77
2023-04-18T05:34:03.467Z,26.74
2023-04-18T05:35:03.528Z,26.71
2023-04-18T05:36:03.541Z,26.67
2023-04-18T05:37:03.567Z,26.87
2023-04-18T05:38:03.581Z,26.79
2023-04-18T05:39:03.615Z,26.82
2023-04-18T05:40:03.841Z,26.93
2023-04-18T05:41:03.674Z,27.01
2023-04-18T05:42:03.714Z,27.07
2023-04-18T05:43:03.716Z,27.22
2023-04-18T05:44:05.778Z,27.23
2023-04-18T05:45:04.770Z,27.37
2023-04-18T05:46:03.760Z,28.07
2023-04-18T05:47:03.717Z,27.81
2023-04-18T05:48:03.805Z,28.26
2023-04-18T05:49:03.727Z,28.02
2023-04-18T05:50:03.748Z,28.16
2023-04-18T05:51:03.721Z,28.37
2023-04-18T05:52:03.698Z,28.73
2023-04-18T05:53:03.721Z,27.39
2023-04-18T05:54:03.689Z,26.84
2023-04-18T05:55:03.705Z,26.74
2023-04-18T05:56:03.817Z,26.95
2023-04-18T05:57:04.780Z,26.70
2023-04-18T05:58:03.652Z,26.80
2023-04-18T05:59:03.694Z,26.96
2023-04-18T06:00:03.643Z,26.81
2023-04-18T06:01:03.626Z,27.07
2023-04-18T06:02:03.718Z,26.98
2023-04-18T06:03:03.812Z,27.20
2023-04-18T06:04:03.791Z,27.35
2023-04-18T06:05:03.881Z,27.58
2023-04-18T06:06:03.713Z,27.78
2023-04-18T06:07:03.722Z,28.08
2023-04-18T06:08:03.785Z,28.19
2023-04-18T06:09:03.787Z,28.12
2023-04-18T06:10:03.857Z,28.33
2023-04-18T06:11:03.875Z,28.43
2023-04-18T06:12:03.968Z,28.48
2023-04-18T06:13:03.915Z,28.56
2023-04-18T06:14:03.906Z,28.80
2023-04-18T06:15:03.931Z,28.81
2023-04-18T06:16:03.996Z,29.48
2023-04-18T06:17:03.965Z,29.11
2023-04-18T06:18:03.965Z,29.18
2023-04-18T06:19:03.976Z,29.21
2023-04-18T06:20:04.050Z,29.28
2023-04-18T06:21:04.088Z,29.39
2023-04-18T06:22:04.159Z,29.59
2023-04-18T06:23:04.182Z,29.56
2023-04-18T06:24:04.252Z,29.63
2023-04-18T06:25:04.266Z,30.12
2023-04-18T06:26:04.317Z,29.85
2023-04-18T06:27:04.352Z,29.82
2023-04-18T06:28:04.395Z,29.87
2023-04-18T06:29:04.398Z,29.66
2023-04-18T06:30:04.439Z,29.80
2023-04-18T06:31:04.442Z,29.99
2023-04-18T06:32:04.795Z,29.87
2023-04-18T06:33:04.475Z,30.08
2023-04-18T06:34:04.484Z,30.08
2023-04-18T06:35:04.504Z,30.15
2023-04-18T06:36:04.521Z,30.75
2023-04-18T06:37:04.502Z,30.66
2023-04-18T06:38:04.556Z,30.80
2023-04-18T06:39:04.522Z,30.82
2023-04-18T06:40:04.554Z,30.92
2023-04-18T06:41:04.553Z,30.99
2023-04-18T06:42:04.569Z,31.10
2023-04-18T06:43:04.591Z,30.94
2023-04-18T06:44:04.905Z,30.96
2023-04-18T06:45:04.890Z,31.37
2023-04-18T06:46:04.810Z,30.56
2023-04-18T06:47:04.648Z,31.12
2023-04-18T06:48:04.729Z,32.08
2023-04-18T06:49:04.656Z,31.68
2023-04-18T06:50:04.688Z,30.71
2023-04-18T06:51:04.717Z,27.64
2023-04-18T06:52:04.737Z,26.89
2023-04-18T06:53:04.782Z,26.51
2023-04-18T06:54:04.760Z,26.15
2023-04-18T06:55:04.847Z,26.44
2023-04-18T06:56:04.833Z,27.23
2023-04-18T06:57:04.833Z,27.86
2023-04-18T06:58:04.964Z,27.38
2023-04-18T06:59:04.932Z,26.98
2023-04-18T07:00:04.953Z,27.27
2023-04-18T07:01:05.020Z,27.81
2023-04-18T07:02:05.070Z,28.65
2023-04-18T07:03:05.092Z,28.20
2023-04-18T07:04:05.110Z,28.25
2023-04-18T07:05:05.047Z,28.39
2023-04-18T07:06:05.063Z,28.06
2023-04-18T07:07:05.113Z,28.41
2023-04-18T07:08:05.182Z,28.71
2023-04-18T07:09:05.202Z,28.59
2023-04-18T07:10:05.241Z,28.12
2023-04-18T07:11:05.309Z,28.94
2023-04-18T07:12:05.288Z,28.86
2023-04-18T07:13:05.264Z,28.02
2023-04-18T07:14:05.289Z,28.12
2023-04-18T07:15:05.313Z,28.40
2023-04-18T07:16:05.401Z,28.43
2023-04-18T07:17:05.437Z,28.10
2023-04-18T07:18:05.364Z,28.01
2023-04-18T07:19:05.348Z,28.30
2023-04-18T07:20:05.344Z,28.30
2023-04-18T07:21:05.390Z,28.25
2023-04-18T07:22:05.410Z,28.21
2023-04-18T07:23:05.490Z,27.94
2023-04-18T07:24:05.525Z,28.16
2023-04-18T07:25:05.880Z,28.35
2023-04-18T07:26:05.732Z,28.41
2023-04-18T07:27:05.670Z,28.37
2023-04-18T07:28:05.718Z,28.58
2023-04-18T07:29:05.768Z,28.45
2023-04-18T07:30:05.789Z,28.58
2023-04-18T07:31:05.995Z,28.55
2023-04-18T07:32:08.142Z,28.33
2023-04-18T07:33:05.925Z,28.18
2023-04-18T07:34:05.856Z,28.05
2023-04-18T07:35:05.841Z,28.42
2023-04-18T07:36:05.835Z,28.44
2023-04-18T07:37:05.842Z,28.41
2023-04-18T07:38:05.800Z,28.35
2023-04-18T07:39:05.791Z,27.76
2023-04-18T07:40:05.835Z,27.91
2023-04-18T07:41:06.693Z,28.22
2023-04-18T07:42:06.352Z,29.24
2023-04-18T07:43:06.332Z,29.87
2023-04-18T07:44:05.769Z,29.85
2023-04-18T07:45:05.790Z,29.77
2023-04-18T07:46:05.935Z,30.03
2023-04-18T07:47:05.776Z,29.99
2023-04-18T07:48:06.049Z,31.43
2023-04-18T07:49:05.756Z,29.74
2023-04-18T07:50:05.745Z,29.41
2023-04-18T07:51:05.722Z,29.32
2023-04-18T07:52:05.730Z,29.23
2023-04-18T07:53:05.714Z,29.31
2023-04-18T07:54:05.746Z,29.66
2023-04-18T07:55:05.711Z,29.94
2023-04-18T07:56:05.727Z,30.04
2023-04-18T07:57:05.685Z,30.02
2023-04-18T07:58:05.688Z,30.28
2023-04-18T07:59:05.651Z,30.37
2023-04-18T08:00:05.687Z,30.41
2023-04-18T08:01:05.683Z,30.46
2023-04-18T08:02:05.705Z,30.57
2023-04-18T08:03:05.743Z,30.71
2023-04-18T08:04:05.812Z,30.84
2023-04-18T08:05:05.868Z,30.94
2023-04-18T08:06:05.645Z,30.91
2023-04-18T08:07:05.625Z,30.98
2023-04-18T08:08:05.606Z,31.09
2023-04-18T08:09:05.629Z,31.00
2023-04-18T08:10:05.610Z,31.20
2023-04-18T08:11:05.620Z,31.27
2023-04-18T08:12:05.671Z,31.37
2023-04-18T08:13:05.583Z,31.41
2023-04-18T08:14:05.564Z,31.54
2023-04-18T08:15:05.610Z,31.58
2023-04-18T08:16:05.640Z,31.53
2023-04-18T08:17:05.613Z,31.66
2023-04-18T08:18:05.723Z,31.73
2023-04-18T08:19:05.729Z,31.76
2023-04-18T08:20:05.906Z,31.85
2023-04-18T08:21:05.818Z,31.84
2023-04-18T08:22:05.858Z,31.85
2023-04-18T08:23:09.556Z,31.96
2023-04-18T08:24:06.904Z,32.10
2023-04-18T08:25:05.999Z,32.03
2023-04-18T08:26:05.936Z,32.06
2023-04-18T08:27:05.846Z,32.06
2023-04-18T08:28:05.877Z,31.90
2023-04-18T08:29:05.850Z,32.00
2023-04-18T08:30:05.829Z,32.20
2023-04-18T08:31:05.876Z,32.12
2023-04-18T08:32:05.868Z,32.18
2023-04-18T08:33:05.876Z,32.30
2023-04-18T08:34:05.883Z,32.33
2023-04-18T08:35:05.904Z,32.54
2023-04-18T08:36:06.408Z,32.74
2023-04-18T08:37:06.058Z,32.73
2023-04-18T08:38:06.084Z,32.45
2023-04-18T08:39:06.140Z,32.68
2023-04-18T08:40:06.224Z,32.54
2023-04-18T08:41:06.208Z,33.37
2023-04-18T08:42:06.273Z,33.44
2023-04-18T08:43:06.321Z,32.81
2023-04-18T08:44:06.339Z,33.07
2023-04-18T08:45:06.392Z,31.36
2023-04-18T08:46:06.954Z,29.03
2023-04-18T08:47:06.460Z,28.77
2023-04-18T08:48:06.505Z,30.12
2023-04-18T08:49:06.462Z,29.30
2023-04-18T08:50:06.482Z,29.80
2023-04-18T08:51:06.889Z,30.66
2023-04-18T08:52:06.733Z,30.51
2023-04-18T08:53:06.585Z,30.40
2023-04-18T08:54:06.643Z,30.19
2023-04-18T08:55:06.730Z,29.18
2023-04-18T08:56:06.677Z,28.49
2023-04-18T08:57:06.740Z,28.16
2023-04-18T08:58:06.745Z,28.44
2023-04-18T08:59:06.828Z,28.11
2023-04-18T09:00:06.867Z,28.45
2023-04-18T09:01:06.979Z,27.83
2023-04-18T09:02:06.941Z,28.08
2023-04-18T09:03:07.167Z,27.69
2023-04-18T09:04:07.014Z,28.12
2023-04-18T09:05:06.944Z,28.17
2023-04-18T09:06:06.999Z,28.12
2023-04-18T09:07:06.984Z,28.00
2023-04-18T09:08:07.117Z,28.03
2023-04-18T09:09:07.086Z,28.19
2023-04-18T09:10:07.166Z,31.05
2023-04-18T09:11:07.185Z,30.35
2023-04-18T09:12:07.235Z,29.45
2023-04-18T09:13:07.230Z,29.79
2023-04-18T09:14:07.287Z,29.84
2023-04-18T09:15:07.292Z,30.23
2023-04-18T09:16:07.297Z,30.21
2023-04-18T09:17:07.352Z,30.17
2023-04-18T09:18:07.384Z,30.29
2023-04-18T09:19:07.374Z,30.69
2023-04-18T09:20:07.376Z,30.56
2023-04-18T09:21:07.400Z,30.63
2023-04-18T09:22:07.417Z,30.58
2023-04-18T09:23:07.456Z,30.63
2023-04-18T09:24:07.461Z,30.65
2023-04-18T09:25:07.487Z,30.59
2023-04-18T09:26:07.533Z,30.56
2023-04-18T09:27:07.576Z,30.73
2023-04-18T09:28:07.609Z,30.79
2023-04-18T09:29:07.619Z,30.78
2023-04-18T09:30:07.639Z,30.87
2023-04-18T09:31:07.980Z,30.94
2023-04-18T09:32:07.717Z,30.93
2023-04-18T09:33:07.870Z,30.88
2023-04-18T09:34:07.843Z,31.03
2023-04-18T09:35:07.906Z,30.92
2023-04-18T09:36:08.408Z,31.00
2023-04-18T09:37:08.057Z,31.02
2023-04-18T09:38:08.078Z,30.95
2023-04-18T09:39:08.086Z,30.94
2023-04-18T09:40:08.413Z,31.11
2023-04-18T09:41:08.470Z,30.81
2023-04-18T09:42:08.271Z,30.87
2023-04-18T09:43:08.311Z,30.85
2023-04-18T09:44:08.365Z,30.88
2023-04-18T09:45:08.413Z,30.79
2023-04-18T09:46:08.463Z,30.60
2023-04-18T09:47:08.435Z,30.78
2023-04-18T09:48:08.496Z,30.73
2023-04-18T09:49:10.923Z,30.70
2023-04-18T09:50:08.762Z,30.83
2023-04-18T09:51:08.761Z,30.85
2023-04-18T09:52:08.776Z,30.82
2023-04-18T09:53:08.830Z,30.84
2023-04-18T09:54:08.880Z,30.83
2023-04-18T09:55:08.885Z,30.86
2023-04-18T09:56:08.932Z,30.90
2023-04-18T09:57:08.957Z,30.86
2023-04-18T09:58:08.959Z,30.90
2023-04-18T09:59:09.090Z,30.90
2023-04-18T10:00:09.071Z,31.03
2023-04-18T10:01:09.083Z,30.97
2023-04-18T10:02:09.161Z,31.00
2023-04-18T10:03:09.184Z,31.05
2023-04-18T10:04:09.190Z,31.00
2023-04-18T10:05:09.158Z,31.00
2023-04-18T10:06:09.128Z,30.97
2023-04-18T10:07:09.138Z,31.00
2023-04-18T10:08:09.195Z,31.04
2023-04-18T10:09:09.277Z,31.04
2023-04-18T10:10:09.243Z,30.99
2023-04-18T10:11:09.432Z,31.03
2023-04-18T10:12:09.282Z,31.08
2023-04-18T10:13:09.353Z,31.04
2023-04-18T10:14:09.362Z,31.05
2023-04-18T10:15:09.453Z,31.04
2023-04-18T10:16:09.566Z,31.04
2023-04-18T10:17:09.545Z,31.01
2023-04-18T10:18:09.582Z,30.96
2023-04-18T10:19:09.603Z,30.96
2023-04-18T10:20:09.650Z,30.93
2023-04-18T10:21:09.687Z,30.88
2023-04-18T10:22:09.706Z,30.89
2023-04-18T10:23:09.758Z,30.83
2023-04-18T10:24:09.819Z,30.85
2023-04-18T10:25:09.868Z,30.84
2023-04-18T10:26:09.930Z,30.84
2023-04-18T10:27:09.929Z,30.81
2023-04-18T10:28:09.970Z,30.79
2023-04-18T10:29:10.030Z,30.78
2023-04-18T10:30:10.029Z,30.75
2023-04-18T10:31:10.108Z,30.74
2023-04-18T10:32:10.149Z,30.74
2023-04-18T10:33:18.384Z,30.80
2023-04-18T10:34:11.120Z,30.76
2023-04-18T10:35:10.184Z,30.52
2023-04-18T10:36:10.426Z,30.52
2023-04-18T10:37:10.425Z,30.66
2023-04-18T10:38:10.138Z,31.85
2023-04-18T10:39:10.109Z,31.41
2023-04-18T10:40:10.116Z,31.39
2023-04-18T10:41:10.457Z,31.26
2023-04-18T10:42:10.118Z,31.37
2023-04-18T10:43:10.112Z,31.91
2023-04-18T10:44:10.131Z,31.70
2023-04-18T10:45:10.152Z,31.77
2023-04-18T10:46:23.783Z,31.87
2023-04-18T10:47:11.261Z,31.83
2023-04-18T10:48:10.250Z,31.83
2023-04-18T10:49:10.178Z,31.63
2023-04-18T10:50:10.223Z,31.81
2023-04-18T10:51:10.192Z,31.86
2023-04-18T10:52:11.731Z,31.95
2023-04-18T10:53:10.164Z,32.31
2023-04-18T10:54:10.229Z,31.81
2023-04-18T10:55:10.152Z,31.48
2023-04-18T10:56:10.154Z,31.59
2023-04-18T10:57:10.164Z,31.72
2023-04-18T10:58:10.131Z,31.69
2023-04-18T10:59:10.110Z,31.67
2023-04-18T11:00:10.134Z,31.71
2023-04-18T11:01:10.181Z,31.79
2023-04-18T11:02:10.163Z,32.15
2023-04-18T11:03:10.292Z,32.73
2023-04-18T11:04:10.183Z,32.52
2023-04-18T11:05:10.071Z,32.84
2023-04-18T11:06:10.110Z,33.27
2023-04-18T11:07:10.066Z,33.08
2023-04-18T11:08:10.059Z,33.83
2023-04-18T11:09:10.073Z,33.45
2023-04-18T11:10:10.063Z,33.66
2023-04-18T11:11:10.051Z,33.74
2023-04-18T11:12:10.022Z,33.98
2023-04-18T11:13:10.064Z,33.95
2023-04-18T11:14:10.004Z,33.70
2023-04-18T11:15:10.025Z,33.90
2023-04-18T11:16:10.172Z,34.58
2023-04-18T11:17:10.009Z,34.15
2023-04-18T11:18:10.055Z,34.03
2023-04-18T11:19:09.972Z,34.59
2023-04-18T11:20:09.992Z,34.46
2023-04-18T11:21:09.975Z,34.81
2023-04-18T11:22:10.027Z,35.08
2023-04-18T11:23:09.943Z,34.93
2023-04-18T11:24:09.933Z,35.43
2023-04-18T11:25:09.947Z,35.26
2023-04-18T11:26:09.959Z,35.33
2023-04-18T11:27:09.944Z,35.52
2023-04-18T11:28:09.913Z,34.96
2023-04-18T11:29:09.882Z,35.22
2023-04-18T11:30:09.913Z,35.13
2023-04-18T11:31:10.152Z,35.02
2023-04-18T11:32:10.035Z,34.48
2023-04-18T11:33:09.935Z,34.56
2023-04-18T11:34:09.901Z,34.32
2023-04-18T11:35:09.862Z,34.23
2023-04-18T11:36:09.893Z,34.04
2023-04-18T11:37:09.954Z,34.02
2023-04-18T11:38:09.854Z,33.93
2023-04-18T11:39:09.834Z,33.84
2023-04-18T11:40:09.825Z,33.69
2023-04-18T11:41:09.843Z,33.59
2023-04-18T11:42:09.854Z,33.45
2023-04-18T11:43:09.839Z,33.41
2023-04-18T11:44:09.808Z,33.36
2023-04-18T11:45:09.824Z,33.23
2023-04-18T11:46:09.876Z,33.18
2023-04-18T11:47:09.821Z,33.06
2023-04-18T11:48:09.890Z,32.98
2023-04-18T11:49:09.797Z,32.90
2023-04-18T11:50:09.774Z,32.83
2023-04-18T11:51:09.822Z,32.24
2023-04-18T11:52:09.753Z,32.44
2023-04-18T11:53:09.765Z,32.40
2023-04-18T11:54:09.740Z,32.46
2023-04-18T11:55:09.719Z,32.19
2023-04-18T11:56:09.723Z,32.26
2023-04-18T11:57:09.765Z,32.23
2023-04-18T11:58:09.754Z,32.18
2023-04-18T11:59:09.782Z,32.19
2023-04-18T12:00:09.808Z,32.11
2023-04-18T12:01:09.843Z,32.13
2023-04-18T12:03:11.791Z,32.04
2023-04-18T12:04:10.085Z,32.00
2023-04-18T12:05:10.159Z,31.92
2023-04-18T12:06:09.900Z,31.91
2023-04-18T12:07:09.834Z,31.86
2023-04-18T12:08:09.880Z,31.84
2023-04-18T12:09:09.843Z,31.81
2023-04-18T12:10:09.873Z,31.80
2023-04-18T12:11:09.800Z,31.76
2023-04-18T12:12:09.836Z,31.72
2023-04-18T12:13:09.795Z,31.70
2023-04-18T12:14:09.804Z,31.40
2023-04-18T12:15:09.808Z,31.45
2023-04-18T12:16:09.849Z,31.38
2023-04-18T12:17:09.761Z,31.55
2023-04-18T12:18:09.799Z,31.57
2023-04-18T12:19:09.788Z,31.36
2023-04-18T12:20:09.813Z,31.12
2023-04-18T12:21:09.738Z,30.96
2023-04-18T12:22:09.742Z,30.85
2023-04-18T12:23:09.754Z,31.16
2023-04-18T12:24:09.736Z,31.17
2023-04-18T12:25:09.812Z,31.05
2023-04-18T12:26:09.701Z,31.07
2023-04-18T12:27:09.699Z,31.09
2023-04-18T12:28:09.698Z,31.05
2023-04-18T12:29:09.660Z,31.07
2023-04-18T12:30:09.714Z,31.02
2023-04-18T12:31:09.717Z,31.19
2023-04-18T12:32:09.693Z,31.27
2023-04-18T12:33:09.696Z,31.51
2023-04-18T12:34:09.654Z,31.52
2023-04-18T12:35:09.647Z,31.72
2023-04-18T12:36:09.680Z,31.69
2023-04-18T12:37:09.621Z,31.55
2023-04-18T12:38:09.610Z,31.64
2023-04-18T12:39:09.648Z,31.94
2023-04-18T12:40:09.627Z,31.97
2023-04-18T12:41:09.592Z,31.88
2023-04-18T12:42:09.660Z,31.84
2023-04-18T12:43:09.728Z,31.91
2023-04-18T12:44:09.745Z,31.89
2023-04-18T12:45:09.786Z,31.82
2023-04-18T12:46:09.890Z,31.89
2023-04-18T12:47:09.931Z,31.88
2023-04-18T12:48:09.952Z,31.89
2023-04-18T12:49:09.993Z,31.86
2023-04-18T12:50:11.341Z,31.80
2023-04-18T12:51:10.087Z,31.75
2023-04-18T12:52:10.337Z,31.72
2023-04-18T12:53:10.204Z,31.65
2023-04-18T12:54:10.270Z,31.63